sensor_id;sensor_type;location;lat;lon;timestamp;temperature;humidity
9849;DHT22;4963;51.444;6.528;2023-08-06T00:01:52;16.70;99.90
9849;DHT22;4963;51.444;6.528;2023-08-06T00:04:19;16.60;99.90
9849;DHT22;4963;51.444;6.528;2023-08-06T00:06:46;16.60;99.90
9849;DHT22;4963;51.444;6.528;2023-08-06T00:09:14;16.60;99.90
9849;DHT22;4963;51.444;6.528;2023-08-06T00:11:41;16.60;99.90
9849;DHT22;4963;51.444;6.528;2023-08-06T00:14:12;16.60;99.90
9849;DHT22;4963;51.444;6.528;2023-08-06T00:16:42;16.70;99.90
9849;DHT22;4963;51.444;6.528;2023-08-06T00:19:09;16.70;99.90
9849;DHT22;4963;51.444;6.528;2023-08-06T00:21:36;16.80;99.90
9849;DHT22;4963;51.444;6.528;2023-08-06T00:24:03;16.80;99.90
9849;DHT22;4963;51.444;6.528;2023-08-06T00:26:31;16.80;99.90
9849;DHT22;4963;51.444;6.528;2023-08-06T00:28:58;16.80;99.90
9849;DHT22;4963;51.444;6.528;2023-08-06T00:31:25;16.80;99.90
9849;DHT22;4963;51.444;6.528;2023-08-06T00:33:52;16.80;99.90
9849;DHT22;4963;51.444;6.528;2023-08-06T00:36:19;16.90;99.90
9849;DHT22;4963;51.444;6.528;2023-08-06T00:38:46;16.90;99.90
9849;DHT22;4963;51.444;6.528;2023-08-06T00:41:13;16.90;99.90
9849;DHT22;4963;51.444;6.528;2023-08-06T00:43:41;16.90;99.90
9849;DHT22;4963;51.444;6.528;2023-08-06T00:46:08;16.90;99.90
9849;DHT22;4963;51.444;6.528;2023-08-06T00:48:36;16.90;99.90
9849;DHT22;4963;51.444;6.528;2023-08-06T00:51:03;16.90;99.90
9849;DHT22;4963;51.444;6.528;2023-08-06T00:53:30;16.90;99.90
9849;DHT22;4963;51.444;6.528;2023-08-06T00:55:58;16.90;99.90
9849;DHT22;4963;51.444;6.528;2023-08-06T00:58:25;16.90;99.90
9849;DHT22;4963;51.444;6.528;2023-08-06T01:00:54;16.90;99.90
9849;DHT22;4963;51.444;6.528;2023-08-06T01:03:20;16.90;99.90
9849;DHT22;4963;51.444;6.528;2023-08-06T01:05:48;16.90;99.90
9849;DHT22;4963;51.444;6.528;2023-08-06T01:08:23;16.90;99.90
9849;DHT22;4963;51.444;6.528;2023-08-06T01:11:04;16.90;99.90
9849;DHT22;4963;51.444;6.528;2023-08-06T01:13:41;16.90;99.90
9849;DHT22;4963;51.444;6.528;2023-08-06T01:16:10;16.90;99.90
9849;DHT22;4963;51.444;6.528;2023-08-06T01:18:38;16.90;99.90
9849;DHT22;4963;51.444;6.528;2023-08-06T01:21:08;16.90;99.90
9849;DHT22;4963;51.444;6.528;2023-08-06T01:23:35;16.90;99.90
9849;DHT22;4963;51.444;6.528;2023-08-06T01:26:08;17.00;99.90
9849;DHT22;4963;51.444;6.528;2023-08-06T01:28:44;17.00;99.90
9849;DHT22;4963;51.444;6.528;2023-08-06T01:31:18;17.00;99.90
9849;DHT22;4963;51.444;6.528;2023-08-06T01:33:48;16.90;99.90
9849;DHT22;4963;51.444;6.528;2023-08-06T01:36:17;16.90;99.90
9849;DHT22;4963;51.444;6.528;2023-08-06T01:38:45;16.90;99.90
9849;DHT22;4963;51.444;6.528;2023-08-06T01:41:12;16.90;99.90
9849;DHT22;4963;51.444;6.528;2023-08-06T01:43:39;16.90;99.90
9849;DHT22;4963;51.444;6.528;2023-08-06T01:46:06;16.90;99.90
9849;DHT22;4963;51.444;6.528;2023-08-06T01:48:33;16.90;99.90
9849;DHT22;4963;51.444;6.528;2023-08-06T01:50:59;16.90;99.90
9849;DHT22;4963;51.444;6.528;2023-08-06T01:53:28;16.90;99.90
9849;DHT22;4963;51.444;6.528;2023-08-06T01:55:55;16.90;99.90
9849;DHT22;4963;51.444;6.528;2023-08-06T01:58:22;16.90;99.90
9849;DHT22;4963;51.444;6.528;2023-08-06T02:00:49;16.90;99.90
9849;DHT22;4963;51.444;6.528;2023-08-06T02:03:16;16.90;99.90
9849;DHT22;4963;51.444;6.528;2023-08-06T02:05:43;16.80;99.90
9849;DHT22;4963;51.444;6.528;2023-08-06T02:08:11;16.90;99.90
9849;DHT22;4963;51.444;6.528;2023-08-06T02:10:39;16.80;99.90
9849;DHT22;4963;51.444;6.528;2023-08-06T02:13:07;16.80;99.90
9849;DHT22;4963;51.444;6.528;2023-08-06T02:15:34;16.70;99.90
9849;DHT22;4963;51.444;6.528;2023-08-06T02:18:00;16.60;99.90
9849;DHT22;4963;51.444;6.528;2023-08-06T02:20:27;16.60;99.90
9849;DHT22;4963;51.444;6.528;2023-08-06T02:22:54;16.60;99.90
9849;DHT22;4963;51.444;6.528;2023-08-06T02:25:21;16.60;99.90
9849;DHT22;4963;51.444;6.528;2023-08-06T02:27:49;16.60;99.90
9849;DHT22;4963;51.444;6.528;2023-08-06T02:30:16;16.60;99.90
9849;DHT22;4963;51.444;6.528;2023-08-06T02:32:43;16.50;99.90
9849;DHT22;4963;51.444;6.528;2023-08-06T02:35:10;16.50;99.90
9849;DHT22;4963;51.444;6.528;2023-08-06T02:37:37;16.50;99.90
9849;DHT22;4963;51.444;6.528;2023-08-06T02:40:05;16.50;99.90
9849;DHT22;4963;51.444;6.528;2023-08-06T02:42:32;16.50;99.90
9849;DHT22;4963;51.444;6.528;2023-08-06T02:45:00;16.50;99.90
9849;DHT22;4963;51.444;6.528;2023-08-06T02:47:27;16.40;99.90
9849;DHT22;4963;51.444;6.528;2023-08-06T02:49:53;16.40;99.90
9849;DHT22;4963;51.444;6.528;2023-08-06T02:52:20;16.40;99.90
9849;DHT22;4963;51.444;6.528;2023-08-06T02:54:47;16.40;99.90
9849;DHT22;4963;51.444;6.528;2023-08-06T02:57:14;16.40;99.90
9849;DHT22;4963;51.444;6.528;2023-08-06T02:59:41;16.40;99.90
9849;DHT22;4963;51.444;6.528;2023-08-06T03:02:09;16.40;99.90
9849;DHT22;4963;51.444;6.528;2023-08-06T03:04:36;16.40;99.90
9849;DHT22;4963;51.444;6.528;2023-08-06T03:07:03;16.50;99.90
9849;DHT22;4963;51.444;6.528;2023-08-06T03:09:30;16.50;99.90
9849;DHT22;4963;51.444;6.528;2023-08-06T03:11:57;16.50;99.90
9849;DHT22;4963;51.444;6.528;2023-08-06T03:14:24;16.50;99.90
9849;DHT22;4963;51.444;6.528;2023-08-06T03:16:51;16.50;99.90
9849;DHT22;4963;51.444;6.528;2023-08-06T03:19:19;16.50;99.90
9849;DHT22;4963;51.444;6.528;2023-08-06T03:21:46;16.50;99.90
9849;DHT22;4963;51.444;6.528;2023-08-06T03:24:13;16.50;99.90
9849;DHT22;4963;51.444;6.528;2023-08-06T03:26:40;16.40;99.90
9849;DHT22;4963;51.444;6.528;2023-08-06T03:29:07;16.40;99.90
9849;DHT22;4963;51.444;6.528;2023-08-06T03:31:34;16.40;99.90
9849;DHT22;4963;51.444;6.528;2023-08-06T03:34:01;16.40;99.90
9849;DHT22;4963;51.444;6.528;2023-08-06T03:36:29;16.30;99.90
9849;DHT22;4963;51.444;6.528;2023-08-06T03:38:56;16.30;99.90
9849;DHT22;4963;51.444;6.528;2023-08-06T03:41:23;16.30;99.90
9849;DHT22;4963;51.444;6.528;2023-08-06T03:43:49;16.30;99.90
9849;DHT22;4963;51.444;6.528;2023-08-06T03:46:16;16.30;99.90
9849;DHT22;4963;51.444;6.528;2023-08-06T03:48:43;16.30;99.90
9849;DHT22;4963;51.444;6.528;2023-08-06T03:51:10;16.30;99.90
9849;DHT22;4963;51.444;6.528;2023-08-06T03:53:38;16.30;99.90
9849;DHT22;4963;51.444;6.528;2023-08-06T03:56:05;16.30;99.90
9849;DHT22;4963;51.444;6.528;2023-08-06T03:58:32;16.30;99.90
9849;DHT22;4963;51.444;6.528;2023-08-06T04:00:59;16.30;99.90
9849;DHT22;4963;51.444;6.528;2023-08-06T04:03:26;16.30;99.90
9849;DHT22;4963;51.444;6.528;2023-08-06T04:05:54;16.30;99.90
9849;DHT22;4963;51.444;6.528;2023-08-06T04:08:21;16.30;99.90
9849;DHT22;4963;51.444;6.528;2023-08-06T04:10:52;16.30;99.90
9849;DHT22;4963;51.444;6.528;2023-08-06T04:13:19;16.30;99.90
9849;DHT22;4963;51.444;6.528;2023-08-06T04:15:46;16.20;99.90
9849;DHT22;4963;51.444;6.528;2023-08-06T04:18:13;16.20;99.90
9849;DHT22;4963;51.444;6.528;2023-08-06T04:20:44;16.20;99.90
9849;DHT22;4963;51.444;6.528;2023-08-06T04:23:11;16.20;99.90
9849;DHT22;4963;51.444;6.528;2023-08-06T04:25:38;16.20;99.90
9849;DHT22;4963;51.444;6.528;2023-08-06T04:28:07;16.20;99.90
9849;DHT22;4963;51.444;6.528;2023-08-06T04:30:33;16.20;99.90
9849;DHT22;4963;51.444;6.528;2023-08-06T04:33:00;16.20;99.90
9849;DHT22;4963;51.444;6.528;2023-08-06T04:35:27;16.20;99.90
9849;DHT22;4963;51.444;6.528;2023-08-06T04:37:54;16.20;99.90
9849;DHT22;4963;51.444;6.528;2023-08-06T04:40:21;16.30;99.90
9849;DHT22;4963;51.444;6.528;2023-08-06T04:42:48;16.20;99.90
9849;DHT22;4963;51.444;6.528;2023-08-06T04:45:16;16.20;99.90
9849;DHT22;4963;51.444;6.528;2023-08-06T04:47:43;16.20;99.90
9849;DHT22;4963;51.444;6.528;2023-08-06T04:50:10;16.20;99.90
9849;DHT22;4963;51.444;6.528;2023-08-06T04:52:37;16.20;99.90
9849;DHT22;4963;51.444;6.528;2023-08-06T04:55:05;16.20;99.90
9849;DHT22;4963;51.444;6.528;2023-08-06T04:57:32;16.20;99.90
9849;DHT22;4963;51.444;6.528;2023-08-06T04:59:59;16.20;99.90
9849;DHT22;4963;51.444;6.528;2023-08-06T05:02:27;16.20;99.90
9849;DHT22;4963;51.444;6.528;2023-08-06T05:04:54;16.20;99.90
9849;DHT22;4963;51.444;6.528;2023-08-06T05:07:21;16.20;99.90
9849;DHT22;4963;51.444;6.528;2023-08-06T05:09:47;16.30;99.90
9849;DHT22;4963;51.444;6.528;2023-08-06T05:12:14;16.30;99.90
9849;DHT22;4963;51.444;6.528;2023-08-06T05:14:41;16.30;99.90
9849;DHT22;4963;51.444;6.528;2023-08-06T05:17:08;16.30;99.90
9849;DHT22;4963;51.444;6.528;2023-08-06T05:19:36;16.30;99.90
9849;DHT22;4963;51.444;6.528;2023-08-06T05:22:04;16.40;99.90
9849;DHT22;4963;51.444;6.528;2023-08-06T05:24:30;16.40;99.90
9849;DHT22;4963;51.444;6.528;2023-08-06T05:26:57;16.40;99.90
9849;DHT22;4963;51.444;6.528;2023-08-06T05:29:24;16.50;99.90
9849;DHT22;4963;51.444;6.528;2023-08-06T05:31:52;16.50;99.90
9849;DHT22;4963;51.444;6.528;2023-08-06T05:34:19;16.50;99.90
9849;DHT22;4963;51.444;6.528;2023-08-06T05:36:47;16.50;99.90
9849;DHT22;4963;51.444;6.528;2023-08-06T05:39:14;16.60;99.90
9849;DHT22;4963;51.444;6.528;2023-08-06T05:41:41;16.70;99.90
9849;DHT22;4963;51.444;6.528;2023-08-06T05:44:08;16.70;99.90
9849;DHT22;4963;51.444;6.528;2023-08-06T05:46:35;16.80;99.90
9849;DHT22;4963;51.444;6.528;2023-08-06T05:49:01;16.80;99.90
9849;DHT22;4963;51.444;6.528;2023-08-06T05:51:29;17.10;99.90
9849;DHT22;4963;51.444;6.528;2023-08-06T05:53:57;17.40;99.90
9849;DHT22;4963;51.444;6.528;2023-08-06T05:56:24;17.70;99.90
9849;DHT22;4963;51.444;6.528;2023-08-06T05:58:51;17.80;99.90
9849;DHT22;4963;51.444;6.528;2023-08-06T06:01:18;17.90;99.90
9849;DHT22;4963;51.444;6.528;2023-08-06T06:03:45;17.80;99.90
9849;DHT22;4963;51.444;6.528;2023-08-06T06:06:12;17.70;99.90
9849;DHT22;4963;51.444;6.528;2023-08-06T06:08:39;17.60;99.90
9849;DHT22;4963;51.444;6.528;2023-08-06T06:11:07;17.50;99.90
9849;DHT22;4963;51.444;6.528;2023-08-06T06:13:34;17.40;99.90
9849;DHT22;4963;51.444;6.528;2023-08-06T06:16:01;17.40;99.90
9849;DHT22;4963;51.444;6.528;2023-08-06T06:18:28;17.30;99.90
9849;DHT22;4963;51.444;6.528;2023-08-06T06:20:55;17.30;99.90
9849;DHT22;4963;51.444;6.528;2023-08-06T06:23:22;17.30;99.90
9849;DHT22;4963;51.444;6.528;2023-08-06T06:25:49;17.20;99.90
9849;DHT22;4963;51.444;6.528;2023-08-06T06:28:18;17.20;99.90
9849;DHT22;4963;51.444;6.528;2023-08-06T06:30:45;17.20;99.90
9849;DHT22;4963;51.444;6.528;2023-08-06T06:33:12;17.20;99.90
9849;DHT22;4963;51.444;6.528;2023-08-06T06:35:44;17.30;99.90
9849;DHT22;4963;51.444;6.528;2023-08-06T06:38:11;17.30;99.90
9849;DHT22;4963;51.444;6.528;2023-08-06T06:40:38;17.40;99.90
9849;DHT22;4963;51.444;6.528;2023-08-06T06:43:05;17.40;99.90
9849;DHT22;4963;51.444;6.528;2023-08-06T06:45:33;17.50;99.90
9849;DHT22;4963;51.444;6.528;2023-08-06T06:48:01;17.60;99.90
9849;DHT22;4963;51.444;6.528;2023-08-06T06:50:28;17.90;99.90
9849;DHT22;4963;51.444;6.528;2023-08-06T06:52:55;18.40;99.90
9849;DHT22;4963;51.444;6.528;2023-08-06T06:55:22;18.80;99.90
9849;DHT22;4963;51.444;6.528;2023-08-06T06:57:48;19.20;99.90
9849;DHT22;4963;51.444;6.528;2023-08-06T07:00:15;19.40;99.90
9849;DHT22;4963;51.444;6.528;2023-08-06T07:02:44;19.80;99.90
9849;DHT22;4963;51.444;6.528;2023-08-06T07:05:10;20.30;99.90
9849;DHT22;4963;51.444;6.528;2023-08-06T07:07:37;20.70;99.90
9849;DHT22;4963;51.444;6.528;2023-08-06T07:10:05;21.00;99.90
9849;DHT22;4963;51.444;6.528;2023-08-06T07:12:32;21.20;99.90
9849;DHT22;4963;51.444;6.528;2023-08-06T07:14:59;21.40;99.90
9849;DHT22;4963;51.444;6.528;2023-08-06T07:17:26;21.50;99.90
9849;DHT22;4963;51.444;6.528;2023-08-06T07:19:54;21.40;99.90
9849;DHT22;4963;51.444;6.528;2023-08-06T07:22:21;21.30;99.90
9849;DHT22;4963;51.444;6.528;2023-08-06T07:24:48;21.20;99.90
9849;DHT22;4963;51.444;6.528;2023-08-06T07:27:15;21.10;99.90
9849;DHT22;4963;51.444;6.528;2023-08-06T07:29:42;21.00;99.90
9849;DHT22;4963;51.444;6.528;2023-08-06T07:32:09;20.90;99.90
9849;DHT22;4963;51.444;6.528;2023-08-06T07:34:36;20.90;99.90
9849;DHT22;4963;51.444;6.528;2023-08-06T07:37:05;21.00;99.90
9849;DHT22;4963;51.444;6.528;2023-08-06T07:39:32;21.00;99.90
9849;DHT22;4963;51.444;6.528;2023-08-06T07:41:59;20.80;99.90
9849;DHT22;4963;51.444;6.528;2023-08-06T07:44:27;20.70;99.90
9849;DHT22;4963;51.444;6.528;2023-08-06T07:46:54;20.50;99.90
9849;DHT22;4963;51.444;6.528;2023-08-06T07:49:21;20.30;99.90
9849;DHT22;4963;51.444;6.528;2023-08-06T07:51:48;20.20;99.90
9849;DHT22;4963;51.444;6.528;2023-08-06T07:54:18;20.30;99.90
9849;DHT22;4963;51.444;6.528;2023-08-06T07:56:45;20.60;99.90
9849;DHT22;4963;51.444;6.528;2023-08-06T07:59:12;21.10;99.90
9849;DHT22;4963;51.444;6.528;2023-08-06T08:01:39;21.40;99.90
9849;DHT22;4963;51.444;6.528;2023-08-06T08:04:06;21.40;99.90
9849;DHT22;4963;51.444;6.528;2023-08-06T08:06:33;21.40;99.90
9849;DHT22;4963;51.444;6.528;2023-08-06T08:09:00;21.50;99.90
9849;DHT22;4963;51.444;6.528;2023-08-06T08:11:28;21.50;99.90
9849;DHT22;4963;51.444;6.528;2023-08-06T08:13:55;21.50;99.90
9849;DHT22;4963;51.444;6.528;2023-08-06T08:16:22;21.40;99.90
9849;DHT22;4963;51.444;6.528;2023-08-06T08:18:49;21.60;99.90
9849;DHT22;4963;51.444;6.528;2023-08-06T08:21:16;21.90;99.90
9849;DHT22;4963;51.444;6.528;2023-08-06T08:23:43;22.20;99.90
9849;DHT22;4963;51.444;6.528;2023-08-06T08:26:10;22.50;99.90
9849;DHT22;4963;51.444;6.528;2023-08-06T08:28:39;22.70;99.90
9849;DHT22;4963;51.444;6.528;2023-08-06T08:31:08;22.60;99.90
9849;DHT22;4963;51.444;6.528;2023-08-06T08:33:36;22.60;99.90
9849;DHT22;4963;51.444;6.528;2023-08-06T08:36:04;22.60;99.90
9849;DHT22;4963;51.444;6.528;2023-08-06T08:38:31;22.40;99.90
9849;DHT22;4963;51.444;6.528;2023-08-06T08:40:58;22.20;99.90
9849;DHT22;4963;51.444;6.528;2023-08-06T08:43:26;22.00;99.90
9849;DHT22;4963;51.444;6.528;2023-08-06T08:45:55;21.90;99.90
9849;DHT22;4963;51.444;6.528;2023-08-06T08:48:24;21.70;99.90
9849;DHT22;4963;51.444;6.528;2023-08-06T08:50:53;21.60;99.90
9849;DHT22;4963;51.444;6.528;2023-08-06T08:53:21;21.40;99.90
9849;DHT22;4963;51.444;6.528;2023-08-06T08:55:49;21.20;99.90
9849;DHT22;4963;51.444;6.528;2023-08-06T08:58:16;21.00;99.90
9849;DHT22;4963;51.444;6.528;2023-08-06T09:00:47;21.00;99.90
9849;DHT22;4963;51.444;6.528;2023-08-06T09:03:16;20.90;99.90
9849;DHT22;4963;51.444;6.528;2023-08-06T09:05:44;20.80;99.90
9849;DHT22;4963;51.444;6.528;2023-08-06T09:08:15;20.70;99.90
9849;DHT22;4963;51.444;6.528;2023-08-06T09:10:43;20.70;99.90
9849;DHT22;4963;51.444;6.528;2023-08-06T09:13:10;20.70;99.90
9849;DHT22;4963;51.444;6.528;2023-08-06T09:15:38;20.70;99.90
9849;DHT22;4963;51.444;6.528;2023-08-06T09:18:09;20.70;99.90
9849;DHT22;4963;51.444;6.528;2023-08-06T09:20:38;20.60;99.90
9849;DHT22;4963;51.444;6.528;2023-08-06T09:23:07;20.60;99.90
9849;DHT22;4963;51.444;6.528;2023-08-06T09:25:38;20.60;99.90
9849;DHT22;4963;51.444;6.528;2023-08-06T09:28:05;20.60;99.90
9849;DHT22;4963;51.444;6.528;2023-08-06T09:30:35;20.50;99.90
9849;DHT22;4963;51.444;6.528;2023-08-06T09:33:02;20.50;99.90
9849;DHT22;4963;51.444;6.528;2023-08-06T09:35:29;20.50;99.90
9849;DHT22;4963;51.444;6.528;2023-08-06T09:38:05;20.50;99.90
9849;DHT22;4963;51.444;6.528;2023-08-06T09:40:33;20.50;99.90
9849;DHT22;4963;51.444;6.528;2023-08-06T09:43:00;20.50;99.90
9849;DHT22;4963;51.444;6.528;2023-08-06T09:45:30;20.50;99.90
9849;DHT22;4963;51.444;6.528;2023-08-06T09:47:58;20.50;99.90
9849;DHT22;4963;51.444;6.528;2023-08-06T09:50:29;20.50;99.90
9849;DHT22;4963;51.444;6.528;2023-08-06T09:52:57;20.50;99.90
9849;DHT22;4963;51.444;6.528;2023-08-06T09:55:26;20.50;99.90
9849;DHT22;4963;51.444;6.528;2023-08-06T09:57:54;20.40;99.90
9849;DHT22;4963;51.444;6.528;2023-08-06T10:00:21;20.30;99.90
9849;DHT22;4963;51.444;6.528;2023-08-06T10:02:49;20.30;99.90
9849;DHT22;4963;51.444;6.528;2023-08-06T10:05:20;20.20;99.90
9849;DHT22;4963;51.444;6.528;2023-08-06T10:07:47;20.00;99.90
9849;DHT22;4963;51.444;6.528;2023-08-06T10:10:16;19.90;99.90
9849;DHT22;4963;51.444;6.528;2023-08-06T10:12:47;19.80;99.90
9849;DHT22;4963;51.444;6.528;2023-08-06T10:15:19;19.70;99.90
9849;DHT22;4963;51.444;6.528;2023-08-06T10:17:47;19.60;99.90
9849;DHT22;4963;51.444;6.528;2023-08-06T10:20:16;19.50;99.90
9849;DHT22;4963;51.444;6.528;2023-08-06T10:22:44;19.30;99.90
9849;DHT22;4963;51.444;6.528;2023-08-06T10:25:16;19.20;99.90
9849;DHT22;4963;51.444;6.528;2023-08-06T10:27:53;18.90;99.90
9849;DHT22;4963;51.444;6.528;2023-08-06T10:30:25;18.60;99.90
9849;DHT22;4963;51.444;6.528;2023-08-06T10:32:53;18.30;99.90
9849;DHT22;4963;51.444;6.528;2023-08-06T10:35:34;18.20;99.90
9849;DHT22;4963;51.444;6.528;2023-08-06T10:38:07;18.10;99.90
9849;DHT22;4963;51.444;6.528;2023-08-06T10:40:35;18.00;99.90
9849;DHT22;4963;51.444;6.528;2023-08-06T10:43:04;17.90;99.90
9849;DHT22;4963;51.444;6.528;2023-08-06T10:45:34;17.90;99.90
9849;DHT22;4963;51.444;6.528;2023-08-06T10:48:02;17.80;99.90
9849;DHT22;4963;51.444;6.528;2023-08-06T10:50:30;17.80;99.90
9849;DHT22;4963;51.444;6.528;2023-08-06T10:52:57;17.70;99.90
9849;DHT22;4963;51.444;6.528;2023-08-06T10:55:25;17.80;99.90
9849;DHT22;4963;51.444;6.528;2023-08-06T10:57:53;17.70;99.90
9849;DHT22;4963;51.444;6.528;2023-08-06T11:00:22;17.70;99.90
9849;DHT22;4963;51.444;6.528;2023-08-06T11:02:51;17.60;99.90
9849;DHT22;4963;51.444;6.528;2023-08-06T11:05:19;17.50;99.90
9849;DHT22;4963;51.444;6.528;2023-08-06T11:07:46;17.50;99.90
9849;DHT22;4963;51.444;6.528;2023-08-06T11:10:14;17.50;99.90
9849;DHT22;4963;51.444;6.528;2023-08-06T11:12:42;17.40;99.90
9849;DHT22;4963;51.444;6.528;2023-08-06T11:15:10;17.30;99.90
9849;DHT22;4963;51.444;6.528;2023-08-06T11:17:40;17.30;99.90
9849;DHT22;4963;51.444;6.528;2023-08-06T11:20:08;17.20;99.90
9849;DHT22;4963;51.444;6.528;2023-08-06T11:22:36;17.20;99.90
9849;DHT22;4963;51.444;6.528;2023-08-06T11:25:05;17.10;99.90
9849;DHT22;4963;51.444;6.528;2023-08-06T11:27:32;17.10;99.90
9849;DHT22;4963;51.444;6.528;2023-08-06T11:29:59;17.00;99.90
9849;DHT22;4963;51.444;6.528;2023-08-06T11:32:26;17.00;99.90
9849;DHT22;4963;51.444;6.528;2023-08-06T11:34:55;16.90;99.90
9849;DHT22;4963;51.444;6.528;2023-08-06T11:37:23;16.90;99.90
9849;DHT22;4963;51.444;6.528;2023-08-06T11:39:51;16.80;99.90
9849;DHT22;4963;51.444;6.528;2023-08-06T11:42:18;16.90;99.90
9849;DHT22;4963;51.444;6.528;2023-08-06T11:44:45;16.90;99.90
9849;DHT22;4963;51.444;6.528;2023-08-06T11:47:14;16.90;99.90
9849;DHT22;4963;51.444;6.528;2023-08-06T11:49:44;16.80;99.90
9849;DHT22;4963;51.444;6.528;2023-08-06T11:52:15;16.80;99.90
9849;DHT22;4963;51.444;6.528;2023-08-06T11:54:45;16.80;99.90
9849;DHT22;4963;51.444;6.528;2023-08-06T11:57:12;16.80;99.90
9849;DHT22;4963;51.444;6.528;2023-08-06T11:59:39;16.80;99.90
9849;DHT22;4963;51.444;6.528;2023-08-06T12:02:08;16.80;99.90
9849;DHT22;4963;51.444;6.528;2023-08-06T12:05:01;16.90;99.90
9849;DHT22;4963;51.444;6.528;2023-08-06T12:07:32;16.90;99.90
9849;DHT22;4963;51.444;6.528;2023-08-06T12:09:59;16.90;99.90
9849;DHT22;4963;51.444;6.528;2023-08-06T12:12:26;17.00;99.90
9849;DHT22;4963;51.444;6.528;2023-08-06T12:14:54;17.00;99.90
9849;DHT22;4963;51.444;6.528;2023-08-06T12:17:21;17.10;99.90
9849;DHT22;4963;51.444;6.528;2023-08-06T12:19:49;17.10;99.90
9849;DHT22;4963;51.444;6.528;2023-08-06T12:22:16;17.10;99.90
9849;DHT22;4963;51.444;6.528;2023-08-06T12:24:46;17.10;99.90
9849;DHT22;4963;51.444;6.528;2023-08-06T12:27:13;17.10;99.90
9849;DHT22;4963;51.444;6.528;2023-08-06T12:29:41;17.10;99.90
9849;DHT22;4963;51.444;6.528;2023-08-06T12:32:08;17.00;99.90
9849;DHT22;4963;51.444;6.528;2023-08-06T12:34:37;17.00;99.90
9849;DHT22;4963;51.444;6.528;2023-08-06T12:37:04;17.00;99.90
9849;DHT22;4963;51.444;6.528;2023-08-06T12:39:31;17.10;99.90
9849;DHT22;4963;51.444;6.528;2023-08-06T12:42:00;17.10;99.90
9849;DHT22;4963;51.444;6.528;2023-08-06T12:44:27;17.10;99.90
9849;DHT22;4963;51.444;6.528;2023-08-06T12:46:54;17.10;99.90
9849;DHT22;4963;51.444;6.528;2023-08-06T12:49:21;17.20;99.90
9849;DHT22;4963;51.444;6.528;2023-08-06T12:51:48;17.10;99.90
9849;DHT22;4963;51.444;6.528;2023-08-06T12:54:16;17.20;99.90
9849;DHT22;4963;51.444;6.528;2023-08-06T12:56:44;17.20;99.90
9849;DHT22;4963;51.444;6.528;2023-08-06T12:59:14;17.10;99.90
9849;DHT22;4963;51.444;6.528;2023-08-06T13:01:41;17.10;99.90
9849;DHT22;4963;51.444;6.528;2023-08-06T13:04:09;17.10;99.90
9849;DHT22;4963;51.444;6.528;2023-08-06T13:06:36;17.10;99.90
9849;DHT22;4963;51.444;6.528;2023-08-06T13:09:04;17.10;99.90
9849;DHT22;4963;51.444;6.528;2023-08-06T13:11:32;17.10;99.90
9849;DHT22;4963;51.444;6.528;2023-08-06T13:14:04;17.10;99.90
9849;DHT22;4963;51.444;6.528;2023-08-06T13:16:33;17.00;99.90
9849;DHT22;4963;51.444;6.528;2023-08-06T13:19:00;17.00;99.90
9849;DHT22;4963;51.444;6.528;2023-08-06T13:21:35;17.00;99.90
9849;DHT22;4963;51.444;6.528;2023-08-06T13:24:02;17.00;99.90
9849;DHT22;4963;51.444;6.528;2023-08-06T13:26:30;17.10;99.90
9849;DHT22;4963;51.444;6.528;2023-08-06T13:28:57;17.10;99.90
9849;DHT22;4963;51.444;6.528;2023-08-06T13:31:25;17.10;99.90
9849;DHT22;4963;51.444;6.528;2023-08-06T13:33:54;17.10;99.90
9849;DHT22;4963;51.444;6.528;2023-08-06T13:36:23;17.00;99.90
9849;DHT22;4963;51.444;6.528;2023-08-06T13:38:50;17.00;99.90
9849;DHT22;4963;51.444;6.528;2023-08-06T13:41:17;17.00;99.90
9849;DHT22;4963;51.444;6.528;2023-08-06T13:43:44;16.90;99.90
9849;DHT22;4963;51.444;6.528;2023-08-06T13:46:11;16.90;99.90
9849;DHT22;4963;51.444;6.528;2023-08-06T13:48:41;16.90;99.90
9849;DHT22;4963;51.444;6.528;2023-08-06T13:51:10;16.90;99.90
9849;DHT22;4963;51.444;6.528;2023-08-06T13:53:37;16.90;99.90
9849;DHT22;4963;51.444;6.528;2023-08-06T13:56:04;16.90;99.90
9849;DHT22;4963;51.444;6.528;2023-08-06T13:58:31;16.90;99.90
9849;DHT22;4963;51.444;6.528;2023-08-06T14:00:58;17.00;99.90
9849;DHT22;4963;51.444;6.528;2023-08-06T14:03:25;17.00;99.90
9849;DHT22;4963;51.444;6.528;2023-08-06T14:05:52;17.00;99.90
9849;DHT22;4963;51.444;6.528;2023-08-06T14:08:24;17.10;99.90
9849;DHT22;4963;51.444;6.528;2023-08-06T14:10:51;17.10;99.90
9849;DHT22;4963;51.444;6.528;2023-08-06T14:13:18;17.10;99.90
9849;DHT22;4963;51.444;6.528;2023-08-06T14:15:45;17.10;99.90
9849;DHT22;4963;51.444;6.528;2023-08-06T14:18:12;17.10;99.90
9849;DHT22;4963;51.444;6.528;2023-08-06T14:20:39;17.20;99.90
9849;DHT22;4963;51.444;6.528;2023-08-06T14:23:06;17.20;99.90
9849;DHT22;4963;51.444;6.528;2023-08-06T14:25:35;17.20;99.90
9849;DHT22;4963;51.444;6.528;2023-08-06T14:28:02;17.20;99.90
9849;DHT22;4963;51.444;6.528;2023-08-06T14:30:29;17.20;99.90
9849;DHT22;4963;51.444;6.528;2023-08-06T14:32:56;17.20;99.90
9849;DHT22;4963;51.444;6.528;2023-08-06T14:35:23;17.20;99.90
9849;DHT22;4963;51.444;6.528;2023-08-06T14:37:50;17.20;99.90
9849;DHT22;4963;51.444;6.528;2023-08-06T14:40:16;17.20;99.90
9849;DHT22;4963;51.444;6.528;2023-08-06T14:42:45;17.20;99.90
9849;DHT22;4963;51.444;6.528;2023-08-06T14:45:11;17.20;99.90
9849;DHT22;4963;51.444;6.528;2023-08-06T14:47:38;17.10;99.90
9849;DHT22;4963;51.444;6.528;2023-08-06T14:50:05;17.00;99.90
9849;DHT22;4963;51.444;6.528;2023-08-06T14:52:32;17.00;99.90
9849;DHT22;4963;51.444;6.528;2023-08-06T14:55:00;17.00;99.90
9849;DHT22;4963;51.444;6.528;2023-08-06T14:57:29;17.00;99.90
9849;DHT22;4963;51.444;6.528;2023-08-06T14:59:58;17.00;99.90
9849;DHT22;4963;51.444;6.528;2023-08-06T15:02:26;17.00;99.90
9849;DHT22;4963;51.444;6.528;2023-08-06T15:04:53;17.00;99.90
9849;DHT22;4963;51.444;6.528;2023-08-06T15:07:20;17.10;99.90
9849;DHT22;4963;51.444;6.528;2023-08-06T15:09:47;17.10;99.90
9849;DHT22;4963;51.444;6.528;2023-08-06T15:12:13;17.10;99.90
9849;DHT22;4963;51.444;6.528;2023-08-06T15:14:40;17.10;99.90
9849;DHT22;4963;51.444;6.528;2023-08-06T15:17:09;17.10;99.90
9849;DHT22;4963;51.444;6.528;2023-08-06T15:19:36;17.10;99.90
9849;DHT22;4963;51.444;6.528;2023-08-06T15:22:03;17.10;99.90
9849;DHT22;4963;51.444;6.528;2023-08-06T15:24:30;17.00;99.90
9849;DHT22;4963;51.444;6.528;2023-08-06T15:26:57;17.00;99.90
9849;DHT22;4963;51.444;6.528;2023-08-06T15:29:24;17.00;99.90
9849;DHT22;4963;51.444;6.528;2023-08-06T15:31:51;17.00;99.90
9849;DHT22;4963;51.444;6.528;2023-08-06T15:34:19;17.00;99.90
9849;DHT22;4963;51.444;6.528;2023-08-06T15:36:46;17.10;99.90
9849;DHT22;4963;51.444;6.528;2023-08-06T15:39:13;17.00;99.90
9849;DHT22;4963;51.444;6.528;2023-08-06T15:41:41;17.10;99.90
9849;DHT22;4963;51.444;6.528;2023-08-06T15:44:08;17.10;99.90
9849;DHT22;4963;51.444;6.528;2023-08-06T15:46:36;17.10;99.90
9849;DHT22;4963;51.444;6.528;2023-08-06T15:49:03;17.00;99.90
9849;DHT22;4963;51.444;6.528;2023-08-06T15:51:32;17.00;99.90
9849;DHT22;4963;51.444;6.528;2023-08-06T15:53:59;17.00;99.90
9849;DHT22;4963;51.444;6.528;2023-08-06T15:56:26;17.00;99.90
9849;DHT22;4963;51.444;6.528;2023-08-06T15:58:53;17.00;99.90
9849;DHT22;4963;51.444;6.528;2023-08-06T16:01:20;17.00;99.90
9849;DHT22;4963;51.444;6.528;2023-08-06T16:03:47;16.90;99.90
9849;DHT22;4963;51.444;6.528;2023-08-06T16:06:14;16.90;99.90